createdAt,value
2019-03-23T00:02:21.427Z,205.90
2019-03-23T00:04:51.681Z,172.73
2019-03-23T00:07:21.968Z,174.87
2019-03-23T00:09:52.218Z,183.70
2019-03-23T00:12:22.507Z,212.03
2019-03-23T00:14:53.047Z,211.80
2019-03-23T00:17:23.345Z,200.30
2019-03-23T00:19:53.628Z,269.77
2019-03-23T00:22:23.873Z,218.87
2019-03-23T00:24:54.132Z,242.80
2019-03-23T00:27:24.416Z,199.93
2019-03-23T00:29:54.674Z,184.77
2019-03-23T00:32:24.931Z,187.73
2019-03-23T00:34:55.259Z,190.13
2019-03-23T00:37:25.521Z,193.77
2019-03-23T00:39:55.805Z,247.03
2019-03-23T00:42:26.138Z,198.27
2019-03-23T00:44:56.436Z,192.87
2019-03-23T00:47:26.687Z,207.10
2019-03-23T00:49:57.103Z,182.93
2019-03-23T00:52:27.357Z,161.17
2019-03-23T00:54:57.650Z,177.00
2019-03-23T00:57:28.011Z,188.37
2019-03-23T00:59:58.282Z,209.47
2019-03-23T01:02:28.665Z,200.13
2019-03-23T01:04:59.007Z,214.17
2019-03-23T01:07:29.770Z,165.83
2019-03-23T01:10:00.018Z,168.80
2019-03-23T01:12:30.273Z,222.90
2019-03-23T01:15:00.564Z,266.97
2019-03-23T01:17:30.855Z,235.07
2019-03-23T01:20:01.436Z,243.93
2019-03-23T01:22:31.730Z,199.90
2019-03-23T01:25:02.115Z,244.67
2019-03-23T01:27:32.399Z,218.27
2019-03-23T01:30:02.682Z,233.80
2019-03-23T01:32:32.959Z,300.03
2019-03-23T01:35:03.212Z,300.27
2019-03-23T01:37:33.465Z,244.20
2019-03-23T01:40:04.101Z,216.93
2019-03-23T01:42:34.390Z,223.40
2019-03-23T01:45:08.540Z,328.20
2019-03-23T01:47:38.791Z,300.20
2019-03-23T01:50:10.685Z,224.07
2019-03-23T01:52:40.978Z,205.13
2019-03-23T01:55:11.256Z,193.53
2019-03-23T01:57:41.924Z,219.93
2019-03-23T02:00:13.751Z,447.60
2019-03-23T02:02:44.034Z,360.50
2019-03-23T02:05:17.739Z,358.00
2019-03-23T02:07:48.019Z,541.53
2019-03-23T02:10:18.266Z,450.73
2019-03-23T02:12:49.179Z,486.97
2019-03-23T02:15:19.799Z,293.37
2019-03-23T02:17:50.059Z,267.67
2019-03-23T02:20:20.351Z,315.63
2019-03-23T02:22:50.915Z,561.10
2019-03-23T02:25:21.188Z,328.20
2019-03-23T02:27:51.745Z,560.17
2019-03-23T02:30:22.010Z,253.63
2019-03-23T02:32:52.265Z,263.60
2019-03-23T02:35:22.576Z,232.27
2019-03-23T02:37:52.821Z,357.00
2019-03-23T02:40:23.090Z,723.47
2019-03-23T02:42:53.338Z,256.17
2019-03-23T02:45:23.627Z,432.27
2019-03-23T02:47:53.917Z,262.13
2019-03-23T02:50:24.197Z,350.03
2019-03-23T02:52:54.452Z,184.83
2019-03-23T02:55:24.740Z,620.87
2019-03-23T02:57:55.032Z,178.10
2019-03-23T03:00:27.622Z,360.03
2019-03-23T03:02:57.508Z,327.93
2019-03-23T03:05:27.792Z,555.50
2019-03-23T03:07:58.057Z,209.90
2019-03-23T03:10:39.117Z,584.93
2019-03-23T03:13:09.386Z,397.30
2019-03-23T03:15:40.116Z,404.40
2019-03-23T03:18:10.401Z,265.57
2019-03-23T03:20:40.664Z,247.20
2019-03-23T03:23:10.915Z,263.23
2019-03-23T03:25:41.431Z,411.70
2019-03-23T03:28:11.687Z,328.80
2019-03-23T03:30:41.978Z,181.70
2019-03-23T03:33:12.458Z,230.43
2019-03-23T03:35:42.782Z,315.67
2019-03-23T03:38:13.034Z,193.80
2019-03-23T03:40:43.321Z,365.73
2019-03-23T03:43:13.575Z,334.57
2019-03-23T03:45:43.859Z,198.33
2019-03-23T03:48:14.127Z,386.67
2019-03-23T03:50:44.449Z,209.47
2019-03-23T03:53:14.715Z,250.13
2019-03-23T03:55:44.967Z,356.53
2019-03-23T03:58:15.518Z,288.13
2019-03-23T04:00:45.807Z,227.47
2019-03-23T04:03:16.341Z,371.27
2019-03-23T04:05:46.602Z,261.47
2019-03-23T04:08:16.895Z,194.33
2019-03-23T04:10:47.136Z,308.87
2019-03-23T04:13:17.427Z,502.13
2019-03-23T04:15:47.673Z,376.93
2019-03-23T04:18:17.950Z,167.43
2019-03-23T04:20:48.217Z,246.33
2019-03-23T04:23:18.489Z,401.27
2019-03-23T04:25:48.750Z,266.97
2019-03-23T04:28:19.008Z,277.53
2019-03-23T04:30:49.275Z,165.97
2019-03-23T04:33:19.619Z,142.27
2019-03-23T04:35:50.165Z,407.83
2019-03-23T04:38:23.035Z,411.97
2019-03-23T04:40:52.417Z,151.47
2019-03-23T04:43:22.674Z,419.47
2019-03-23T04:45:52.965Z,186.87
2019-03-23T04:48:23.224Z,384.30
2019-03-23T04:50:53.483Z,247.47
2019-03-23T04:53:23.746Z,342.73
2019-03-23T04:55:54.015Z,241.20
2019-03-23T04:58:26.010Z,336.40
2019-03-23T05:00:56.870Z,195.17
2019-03-23T05:03:27.145Z,136.60
2019-03-23T05:05:57.455Z,324.33
2019-03-23T05:08:33.237Z,332.67
2019-03-23T05:11:00.965Z,183.80
2019-03-23T05:13:31.263Z,386.30
2019-03-23T05:16:01.515Z,138.47
2019-03-23T05:18:31.844Z,158.30
2019-03-23T05:21:02.108Z,321.93
2019-03-23T05:23:32.617Z,399.17
2019-03-23T05:26:02.908Z,431.73
2019-03-23T05:28:33.188Z,175.93
2019-03-23T05:31:03.476Z,321.90
2019-03-23T05:33:33.731Z,179.33
2019-03-23T05:36:03.998Z,243.80
2019-03-23T05:38:43.792Z,189.23
2019-03-23T05:41:06.442Z,199.97
2019-03-23T05:43:36.694Z,171.37
2019-03-23T05:46:06.966Z,252.50
2019-03-23T05:48:37.221Z,173.27
2019-03-23T05:51:07.483Z,423.23
2019-03-23T05:53:37.774Z,186.33
2019-03-23T05:56:08.062Z,314.47
2019-03-23T05:58:38.345Z,196.23
2019-03-23T06:01:08.596Z,241.50
2019-03-23T06:03:38.868Z,273.77
2019-03-23T06:06:09.122Z,173.10
2019-03-23T06:08:39.689Z,170.23
2019-03-23T06:11:09.941Z,151.17
2019-03-23T06:13:40.231Z,121.60
2019-03-23T06:16:10.517Z,115.50
2019-03-23T06:18:40.775Z,110.20
2019-03-23T06:21:11.037Z,126.87
2019-03-23T06:23:41.294Z,135.03
2019-03-23T06:26:11.558Z,101.60
2019-03-23T06:28:41.851Z,125.03
2019-03-23T06:31:12.126Z,119.23
2019-03-23T06:33:42.365Z,83.23
2019-03-23T06:36:12.879Z,92.60
2019-03-23T06:38:43.148Z,87.40
2019-03-23T06:41:13.404Z,80.30
2019-03-23T06:43:43.662Z,77.27
2019-03-23T06:46:13.929Z,71.67
2019-03-23T06:48:44.211Z,83.47
2019-03-23T06:51:14.529Z,83.73
2019-03-23T06:53:44.816Z,82.90
2019-03-23T06:56:15.095Z,85.67
2019-03-23T06:58:45.347Z,96.50
2019-03-23T07:01:15.654Z,87.63
2019-03-23T07:03:45.918Z,97.00
2019-03-23T07:06:16.202Z,99.00
2019-03-23T07:08:46.461Z,114.93
2019-03-23T07:11:16.749Z,95.17
2019-03-23T07:13:47.033Z,91.37
2019-03-23T07:16:17.318Z,93.57
2019-03-23T07:18:47.566Z,94.90
2019-03-23T07:21:17.829Z,97.73
2019-03-23T07:23:48.083Z,100.83
2019-03-23T07:26:18.376Z,96.60
2019-03-23T07:28:48.674Z,99.80
2019-03-23T07:31:18.963Z,97.77
2019-03-23T07:33:49.214Z,94.73
2019-03-23T07:36:19.478Z,97.40
2019-03-23T07:38:49.767Z,88.70
2019-03-23T07:41:20.022Z,107.50
2019-03-23T07:43:50.314Z,107.43
2019-03-23T07:46:20.821Z,111.50
2019-03-23T07:48:51.086Z,109.10
2019-03-23T07:51:21.352Z,110.83
2019-03-23T07:53:51.664Z,129.57
2019-03-23T07:56:21.928Z,112.40
2019-03-23T07:58:52.193Z,115.27
2019-03-23T08:01:22.468Z,109.97
2019-03-23T08:03:52.755Z,113.33
2019-03-23T08:06:24.414Z,119.33
2019-03-23T08:08:54.672Z,105.30
2019-03-23T08:11:24.993Z,101.80
2019-03-23T08:13:55.343Z,100.90
2019-03-23T08:16:25.613Z,109.30
2019-03-23T08:18:56.005Z,104.30
2019-03-23T08:21:26.302Z,100.50
2019-03-23T08:23:56.587Z,99.97
2019-03-23T08:26:26.867Z,104.40
2019-03-23T08:28:57.123Z,99.67
2019-03-23T08:31:27.413Z,105.27
2019-03-23T08:33:57.694Z,94.43
2019-03-23T08:36:28.253Z,97.90
2019-03-23T08:38:58.516Z,97.63
2019-03-23T08:41:28.774Z,94.53
2019-03-23T08:43:59.035Z,99.37
2019-03-23T08:46:29.292Z,92.87
2019-03-23T08:48:59.553Z,86.33
2019-03-23T08:51:29.849Z,85.20
2019-03-23T08:54:00.111Z,82.80
2019-03-23T08:56:30.369Z,93.60
2019-03-23T08:59:00.674Z,94.57
2019-03-23T09:01:30.920Z,86.50
2019-03-23T09:04:01.180Z,84.70
2019-03-23T09:06:31.442Z,86.80
2019-03-23T09:09:01.734Z,83.47
2019-03-23T09:11:31.986Z,79.20
2019-03-23T09:14:02.349Z,80.83
2019-03-23T09:16:32.618Z,83.63
2019-03-23T09:19:02.929Z,77.70
2019-03-23T09:21:33.258Z,78.67
2019-03-23T09:24:03.524Z,74.80
2019-03-23T09:26:33.783Z,74.37
2019-03-23T09:29:04.336Z,73.37
2019-03-23T09:31:34.621Z,74.33
2019-03-23T09:34:04.916Z,76.07
2019-03-23T09:36:35.165Z,71.03
2019-03-23T09:39:07.542Z,77.17
2019-03-23T09:41:37.833Z,75.33
2019-03-23T09:44:08.116Z,70.60
2019-03-23T09:46:38.369Z,70.20
2019-03-23T09:49:09.729Z,73.90
2019-03-23T09:51:43.219Z,78.93
2019-03-23T09:54:13.513Z,75.10
2019-03-23T09:56:43.778Z,76.83
2019-03-23T09:59:15.635Z,70.67
2019-03-23T10:01:45.930Z,74.27
2019-03-23T10:04:16.189Z,75.57
2019-03-23T10:06:46.449Z,69.37
2019-03-23T10:09:16.960Z,71.50
2019-03-23T10:11:47.254Z,72.03
2019-03-23T10:14:17.531Z,66.33
2019-03-23T10:16:47.793Z,67.93
2019-03-23T10:19:18.064Z,65.13
2019-03-23T10:21:48.638Z,62.93
2019-03-23T10:24:19.607Z,64.67
2019-03-23T10:26:52.135Z,61.37
2019-03-23T10:29:21.903Z,61.70
2019-03-23T10:31:52.184Z,62.93
2019-03-23T10:34:22.471Z,65.40
2019-03-23T10:36:52.757Z,59.53
2019-03-23T10:39:23.022Z,57.17
2019-03-23T10:41:53.582Z,59.57
2019-03-23T10:44:24.354Z,60.43
2019-03-23T10:46:54.900Z,64.83
2019-03-23T10:49:25.195Z,65.27
2019-03-23T10:51:55.448Z,62.60
2019-03-23T10:54:26.009Z,66.77
2019-03-23T10:56:56.265Z,64.00
2019-03-23T10:59:28.046Z,67.83
2019-03-23T11:01:58.415Z,63.53
2019-03-23T11:04:28.682Z,66.13
2019-03-23T11:06:58.975Z,66.30
2019-03-23T11:09:29.626Z,62.23
2019-03-23T11:11:59.928Z,65.33
2019-03-23T11:14:30.180Z,64.23
2019-03-23T11:17:01.390Z,61.80
2019-03-23T11:19:31.674Z,65.20
2019-03-23T11:22:01.961Z,62.83
2019-03-23T11:24:32.221Z,53.13
2019-03-23T11:27:02.515Z,53.07
2019-03-23T11:29:32.802Z,56.57
2019-03-23T11:32:03.093Z,57.53
2019-03-23T11:34:33.379Z,63.73
2019-03-23T11:37:03.668Z,60.47
2019-03-23T11:39:33.969Z,66.30
2019-03-23T11:42:04.257Z,69.03
2019-03-23T11:44:34.547Z,68.87
2019-03-23T11:47:05.273Z,71.07
2019-03-23T11:49:35.524Z,72.70
2019-03-23T11:52:06.294Z,69.03
2019-03-23T11:54:36.606Z,76.37
2019-03-23T11:57:06.863Z,73.53
2019-03-23T11:59:37.130Z,68.83
2019-03-23T12:02:07.653Z,67.20
2019-03-23T12:04:37.959Z,65.93
2019-03-23T12:07:08.228Z,64.30
2019-03-23T12:09:38.499Z,68.40
2019-03-23T12:12:08.766Z,69.13
2019-03-23T12:14:39.031Z,69.37
2019-03-23T12:17:09.356Z,69.43
2019-03-23T12:19:39.779Z,72.57
2019-03-23T12:22:10.072Z,71.80
2019-03-23T12:24:40.330Z,76.17
2019-03-23T12:27:10.586Z,75.63
2019-03-23T12:29:40.881Z,71.73
2019-03-23T12:32:11.161Z,71.50
2019-03-23T12:34:41.420Z,72.40
2019-03-23T12:37:11.685Z,62.77
2019-03-23T12:39:41.984Z,74.67
2019-03-23T12:42:12.305Z,76.20
2019-03-23T12:44:42.569Z,76.30
2019-03-23T12:47:12.827Z,75.80
2019-03-23T12:49:43.120Z,76.43
2019-03-23T12:52:13.373Z,74.30
2019-03-23T12:54:43.635Z,80.97
2019-03-23T12:57:13.926Z,80.93
2019-03-23T12:59:44.994Z,79.53
2019-03-23T13:02:15.274Z,77.97
2019-03-23T13:04:45.653Z,79.03
2019-03-23T13:07:15.935Z,78.57
2019-03-23T13:09:46.796Z,85.60
2019-03-23T13:12:17.083Z,83.47
2019-03-23T13:14:47.331Z,80.00
2019-03-23T13:17:17.624Z,76.37
2019-03-23T13:19:49.631Z,77.60
2019-03-23T13:22:19.887Z,73.00
2019-03-23T13:24:50.462Z,80.07
2019-03-23T13:27:20.759Z,76.83
2019-03-23T13:29:51.039Z,71.47
2019-03-23T13:32:21.502Z,73.77
2019-03-23T13:34:52.029Z,70.50
2019-03-23T13:37:22.329Z,69.77
2019-03-23T13:39:52.591Z,65.63
2019-03-23T13:42:24.027Z,68.60
2019-03-23T13:44:54.343Z,65.03
2019-03-23T13:47:24.596Z,58.33
2019-03-23T13:49:54.927Z,53.10
2019-03-23T13:52:25.184Z,51.57
2019-03-23T13:54:55.470Z,51.70
2019-03-23T13:57:25.732Z,45.93
2019-03-23T13:59:55.995Z,45.50
2019-03-23T14:02:27.058Z,43.30
2019-03-23T14:04:57.585Z,43.43
2019-03-23T14:07:27.917Z,42.63
2019-03-23T14:09:58.210Z,42.23
2019-03-23T14:12:28.502Z,44.50
2019-03-23T14:15:00.030Z,41.97
2019-03-23T14:17:30.399Z,48.13
2019-03-23T14:20:00.669Z,43.10
2019-03-23T14:22:31.025Z,43.03
2019-03-23T14:25:02.264Z,49.13
2019-03-23T14:27:32.526Z,45.90
2019-03-23T14:30:02.823Z,48.23
2019-03-23T14:32:33.077Z,43.33
2019-03-23T14:35:05.277Z,44.23
2019-03-23T14:37:35.573Z,45.90
2019-03-23T14:40:06.495Z,47.67
2019-03-23T14:42:37.055Z,42.27
2019-03-23T14:45:07.390Z,48.57
2019-03-23T14:47:37.656Z,49.03
2019-03-23T14:50:08.318Z,42.47
2019-03-23T14:52:38.579Z,43.57
2019-03-23T14:55:08.845Z,45.97
2019-03-23T14:57:40.510Z,44.17
2019-03-23T15:00:11.176Z,39.40
2019-03-23T15:02:42.605Z,46.80
2019-03-23T15:05:12.908Z,43.20
2019-03-23T15:07:43.157Z,43.53
2019-03-23T15:10:13.414Z,45.07
2019-03-23T15:12:43.710Z,42.73
2019-03-23T15:15:14.011Z,40.87
2019-03-23T15:17:48.746Z,37.40
2019-03-23T15:20:16.324Z,36.90
2019-03-23T15:22:46.588Z,37.43
2019-03-23T15:25:16.875Z,34.97
2019-03-23T15:27:48.704Z,33.17
2019-03-23T15:30:19.156Z,34.47
2019-03-23T15:32:49.418Z,34.70
2019-03-23T15:35:19.858Z,31.97
2019-03-23T15:37:50.180Z,33.73
2019-03-23T15:40:20.467Z,31.40
2019-03-23T15:42:51.190Z,32.87
2019-03-23T15:45:21.480Z,32.40
2019-03-23T15:47:51.755Z,32.37
2019-03-23T15:50:22.020Z,32.87
2019-03-23T15:52:52.315Z,32.10
2019-03-23T15:55:22.599Z,30.00
2019-03-23T15:57:52.853Z,27.13
2019-03-23T16:00:23.444Z,25.97
2019-03-23T16:02:53.741Z,24.60
2019-03-23T16:05:24.287Z,22.07
2019-03-23T16:07:54.553Z,24.07
2019-03-23T16:10:24.811Z,26.33
2019-03-23T16:12:55.083Z,25.50
2019-03-23T16:15:25.345Z,24.00
2019-03-23T16:17:55.916Z,22.97
2019-03-23T16:20:26.171Z,21.30
2019-03-23T16:22:56.682Z,24.33
2019-03-23T16:25:27.250Z,26.87
2019-03-23T16:27:57.948Z,18.50
2019-03-23T16:30:31.589Z,25.70
2019-03-23T16:33:02.138Z,20.87
2019-03-23T16:35:32.425Z,22.83
2019-03-23T16:38:02.691Z,29.03
2019-03-23T16:40:32.984Z,25.10
2019-03-23T16:43:03.280Z,24.47
2019-03-23T16:45:33.568Z,22.03
2019-03-23T16:48:03.844Z,20.50
2019-03-23T16:50:34.127Z,26.27
2019-03-23T16:53:04.413Z,20.33
2019-03-23T16:55:34.710Z,19.33
2019-03-23T16:58:05.007Z,21.20
2019-03-23T17:00:37.014Z,19.63
2019-03-23T17:03:10.903Z,22.27
2019-03-23T17:05:41.189Z,22.43
2019-03-23T17:08:11.442Z,17.37
2019-03-23T17:10:41.735Z,17.50
2019-03-23T17:13:11.984Z,16.67
2019-03-23T17:15:42.246Z,17.37
2019-03-23T17:18:12.537Z,18.13
2019-03-23T17:20:42.791Z,17.00
2019-03-23T17:23:13.050Z,19.37
2019-03-23T17:25:43.313Z,17.80
2019-03-23T17:28:13.601Z,16.30
2019-03-23T17:30:43.865Z,16.27
2019-03-23T17:33:14.130Z,17.63
2019-03-23T17:35:44.390Z,16.17
2019-03-23T17:38:15.248Z,17.80
2019-03-23T17:40:45.717Z,18.83
2019-03-23T17:43:15.986Z,15.57
2019-03-23T17:45:46.275Z,16.90
2019-03-23T17:48:16.541Z,17.13
2019-03-23T17:50:46.797Z,22.30
2019-03-23T17:53:17.094Z,18.67
2019-03-23T17:55:47.346Z,21.43
2019-03-23T17:58:17.636Z,23.27
2019-03-23T18:00:47.904Z,23.53
2019-03-23T18:03:18.163Z,22.53
2019-03-23T18:05:48.453Z,23.17
2019-03-23T18:08:18.728Z,21.97
2019-03-23T18:10:49.041Z,21.23
2019-03-23T18:13:19.349Z,24.33
2019-03-23T18:15:49.606Z,20.97
2019-03-23T18:18:19.899Z,24.90
2019-03-23T18:20:50.156Z,26.43
2019-03-23T18:23:20.422Z,27.53
2019-03-23T18:25:50.705Z,21.77
2019-03-23T18:28:20.970Z,27.93
2019-03-23T18:30:51.268Z,28.77
2019-03-23T18:33:21.557Z,24.97
2019-03-23T18:35:51.843Z,24.10
2019-03-23T18:38:22.105Z,24.27
2019-03-23T18:40:52.398Z,25.13
2019-03-23T18:43:27.445Z,22.63
2019-03-23T18:45:54.700Z,22.10
2019-03-23T18:48:24.995Z,26.47
2019-03-23T18:50:55.826Z,24.23
2019-03-23T18:53:26.095Z,29.67
2019-03-23T18:55:56.363Z,31.37
2019-03-23T18:58:27.568Z,31.70
2019-03-23T19:00:57.840Z,30.13
2019-03-23T19:03:28.143Z,35.93
2019-03-23T19:05:58.406Z,34.40
2019-03-23T19:08:28.727Z,37.17
2019-03-23T19:10:59.015Z,32.30
2019-03-23T19:13:37.562Z,36.10
2019-03-23T19:16:01.276Z,39.33
2019-03-23T19:18:32.371Z,37.43
2019-03-23T19:21:02.669Z,39.40
2019-03-23T19:23:34.533Z,38.67
2019-03-23T19:26:05.002Z,40.07
2019-03-23T19:28:35.570Z,48.13
2019-03-23T19:31:05.827Z,41.83
2019-03-23T19:33:36.139Z,45.13
2019-03-23T19:36:07.473Z,42.70
2019-03-23T19:38:37.747Z,41.17
2019-03-23T19:41:08.044Z,48.73
2019-03-23T19:43:48.061Z,41.93
2019-03-23T19:46:10.530Z,42.33
2019-03-23T19:48:40.813Z,34.63
2019-03-23T19:51:12.767Z,42.80
2019-03-23T19:53:43.089Z,37.53
2019-03-23T19:56:13.383Z,37.50
2019-03-23T19:58:43.673Z,39.77
2019-03-23T20:01:13.991Z,35.83
2019-03-23T20:03:44.303Z,37.77
2019-03-23T20:06:14.591Z,33.37
2019-03-23T20:08:44.956Z,36.80
2019-03-23T20:11:15.284Z,32.80
2019-03-23T20:13:45.641Z,32.93
2019-03-23T20:16:16.001Z,39.13
2019-03-23T20:18:46.267Z,32.87
2019-03-23T20:21:16.571Z,38.50
2019-03-23T20:23:46.820Z,37.63
2019-03-23T20:26:17.083Z,35.33
2019-03-23T20:28:47.387Z,35.63
2019-03-23T20:31:17.881Z,37.93
2019-03-23T20:33:48.151Z,39.83
2019-03-23T20:36:18.461Z,41.20
2019-03-23T20:38:48.711Z,36.67
2019-03-23T20:41:19.005Z,39.20
2019-03-23T20:43:49.288Z,36.40
2019-03-23T20:46:19.559Z,41.00
2019-03-23T20:48:49.847Z,38.77
2019-03-23T20:51:20.138Z,43.53
2019-03-23T20:53:50.475Z,44.63
2019-03-23T20:56:20.728Z,43.73
2019-03-23T20:58:51.032Z,47.23
2019-03-23T21:01:21.381Z,41.87
2019-03-23T21:03:51.643Z,40.83
2019-03-23T21:06:21.900Z,47.20
2019-03-23T21:08:52.227Z,44.83
2019-03-23T21:11:22.497Z,50.37
2019-03-23T21:13:52.782Z,41.73
2019-03-23T21:16:23.739Z,47.23
2019-03-23T21:18:54.000Z,44.93
2019-03-23T21:21:24.254Z,48.93
2019-03-23T21:23:54.563Z,52.37
2019-03-23T21:26:24.831Z,41.57
2019-03-23T21:28:55.099Z,42.70
2019-03-23T21:31:25.658Z,56.40
2019-03-23T21:33:55.902Z,48.70
2019-03-23T21:36:26.196Z,54.73
2019-03-23T21:38:56.441Z,52.93
2019-03-23T21:41:26.722Z,47.20
2019-03-23T21:43:56.970Z,52.37
2019-03-23T21:46:27.259Z,53.40
2019-03-23T21:48:57.532Z,52.63
2019-03-23T21:51:27.787Z,55.70
2019-03-23T21:53:58.043Z,42.30
2019-03-23T21:56:28.340Z,56.10
2019-03-23T21:58:58.592Z,55.83
2019-03-23T22:01:28.880Z,56.03
2019-03-23T22:03:59.131Z,53.47
2019-03-23T22:06:29.434Z,56.30
2019-03-23T22:08:59.672Z,60.33
2019-03-23T22:11:29.921Z,51.57
2019-03-23T22:14:00.180Z,68.17
2019-03-23T22:16:30.427Z,57.83
2019-03-23T22:19:00.989Z,62.70
2019-03-23T22:21:31.232Z,55.43
2019-03-23T22:24:01.536Z,56.73
2019-03-23T22:26:31.827Z,58.23
2019-03-23T22:29:02.455Z,62.63
2019-03-23T22:31:32.746Z,58.03
2019-03-23T22:34:03.065Z,64.67
2019-03-23T22:36:33.318Z,60.93
2019-03-23T22:39:05.079Z,62.43
2019-03-23T22:41:35.353Z,58.40
2019-03-23T22:44:05.653Z,57.97
2019-03-23T22:46:35.933Z,65.83
2019-03-23T22:49:06.217Z,53.67
2019-03-23T22:51:36.486Z,51.47
2019-03-23T22:54:06.765Z,60.97
2019-03-23T22:56:37.044Z,57.00
2019-03-23T22:59:07.299Z,52.77
2019-03-23T23:01:37.733Z,60.17
2019-03-23T23:04:08.087Z,58.17
2019-03-23T23:06:38.633Z,48.17
2019-03-23T23:09:10.128Z,54.77
2019-03-23T23:11:41.477Z,53.80
2019-03-23T23:14:11.743Z,61.53
2019-03-23T23:16:42.027Z,53.20
2019-03-23T23:19:12.543Z,50.47
2019-03-23T23:21:42.834Z,46.77
2019-03-23T23:24:13.078Z,52.30
2019-03-23T23:26:43.333Z,44.50
2019-03-23T23:29:13.581Z,39.97
2019-03-23T23:31:43.839Z,40.10
2019-03-23T23:34:14.086Z,45.33
2019-03-23T23:36:44.372Z,43.07
2019-03-23T23:39:14.611Z,46.70
2019-03-23T23:41:44.899Z,47.97
2019-03-23T23:44:15.172Z,42.47
2019-03-23T23:46:45.412Z,42.57
2019-03-23T23:49:15.692Z,40.93
2019-03-23T23:51:50.055Z,43.20
2019-03-23T23:54:17.898Z,49.90
2019-03-23T23:56:48.193Z,43.83
2019-03-23T23:59:18.482Z,43.40
